Time;durP1;ratioP1;P1;durP2;ratioP2;P2;SDS_P1;SDS_P2;PMS_P1;PMS_P2;Temp;Humidity;BMP_temperature;BMP_pressure;BME280_temperature;BME280_humidity;BME280_pressure;Samples;Min_cycle;Max_cycle;Signal;HPM_P1;HPM_P2
2023/07/08 00:00:43;;;;;;;0.08;0.08;;;;;;;19.54;59.84;100105.41;7356843;19;20793;-59
2023/07/08 00:03:09;;;;;;;0.10;0.10;;;;;;;19.53;59.93;100103.72;7356021;19;20018;-59
2023/07/08 00:05:35;;;;;;;0.10;0.10;;;;;;;19.62;59.99;100114.56;7357007;19;20036;-59
2023/07/08 00:08:01;;;;;;;0.10;0.10;;;;;;;19.63;60.05;100115.41;7358154;19;20943;-59
2023/07/08 00:10:28;;;;;;;0.10;0.10;;;;;;;19.63;59.73;100116.25;7356921;19;20050;-59
2023/07/08 00:12:56;;;;;;;0.10;0.10;;;;;;;19.64;59.25;100106.50;7357376;19;20018;-59
2023/07/08 00:15:25;;;;;;;0.10;0.10;;;;;;;19.63;59.50;100099.50;7358480;19;20038;-58
2023/07/08 00:17:51;;;;;;;0.10;0.10;;;;;;;19.63;59.92;100107.44;7356859;19;20027;-59
2023/07/08 00:20:38;;;;;;;0.00;0.00;;;;;;;19.64;59.75;100101.19;7357367;19;20006;-59
2023/07/08 00:23:04;;;;;;;;;;;;;;;19.69;58.28;100104.38;7358864;19;20472;-59
2023/07/08 00:25:31;;;;;;;0.10;0.10;;;;;;;19.62;59.34;100093.38;7357291;19;20233;-59
2023/07/08 00:27:56;;;;;;;0.10;0.10;;;;;;;19.68;59.68;100097.38;7351182;19;20013;-59
2023/07/08 00:30:27;;;;;;;0.10;0.10;;;;;;;19.65;59.48;100076.41;7358499;19;20470;-59
2023/07/08 00:32:54;;;;;;;0.10;0.10;;;;;;;19.69;59.49;100080.53;7354611;19;20026;-59
2023/07/08 00:35:28;;;;;;;0.00;0.00;;;;;;;19.70;59.11;100080.41;7352748;19;20606;-59
2023/07/08 00:37:57;;;;;;;0.10;0.10;;;;;;;19.69;59.15;100084.03;7352029;19;20448;-59
2023/07/08 00:40:24;;;;;;;0.10;0.10;;;;;;;19.71;59.71;100081.25;7356642;19;20554;-60
2023/07/08 00:42:50;;;;;;;;;;;;;;;19.76;58.22;100086.22;7358780;19;20010;-59
2023/07/08 00:45:40;;;;;;;0.10;0.10;;;;;;;19.76;58.44;100073.81;7355372;19;20460;-58
2023/07/08 00:48:22;;;;;;;0.10;0.10;;;;;;;19.78;58.12;100069.28;7355521;19;20090;-59
2023/07/08 00:50:48;;;;;;;0.10;0.10;;;;;;;19.76;58.39;100063.22;7355585;19;20810;-59
2023/07/08 00:53:31;;;;;;;0.10;0.10;;;;;;;19.79;58.05;100063.03;7356489;19;20026;-59
2023/07/08 00:56:11;;;;;;;0.00;0.00;;;;;;;19.83;57.69;100056.56;7355756;19;20010;-59
2023/07/08 00:58:42;;;;;;;0.10;0.10;;;;;;;19.85;57.82;100051.97;7352026;19;20006;-59
2023/07/08 01:01:08;;;;;;;0.10;0.10;;;;;;;19.87;57.82;100054.50;7357188;19;20013;-58
2023/07/08 01:04:01;;;;;;;0.10;0.10;;;;;;;19.90;58.03;100047.19;7357028;19;20014;-59
2023/07/08 01:06:31;;;;;;;0.00;0.00;;;;;;;19.93;57.91;100047.00;7251705;19;2004305;-58
2023/07/08 01:09:02;;;;;;;0.10;0.10;;;;;;;19.62;57.78;99991.88;7352878;19;20736;-58
2023/07/08 01:11:29;;;;;;;0.13;0.13;;;;;;;20.04;57.47;100042.72;7357572;19;20014;-58
2023/07/08 01:13:56;;;;;;;0.10;0.10;;;;;;;19.95;57.74;100018.56;7353329;19;20085;-58
2023/07/08 01:16:22;;;;;;;0.10;0.10;;;;;;;20.09;57.82;100029.97;7355014;19;20048;-59
2023/07/08 01:18:52;;;;;;;0.10;0.10;;;;;;;20.12;57.72;100027.97;7356208;19;20087;-59
2023/07/08 01:21:30;;;;;;;0.10;0.10;;;;;;;20.18;57.21;100026.66;7355065;19;20732;-59
2023/07/08 01:23:55;;;;;;;0.10;0.10;;;;;;;20.17;57.24;100040.84;7355330;19;20334;-58
2023/07/08 01:26:27;;;;;;;0.10;0.10;;;;;;;20.21;57.36;100035.22;7356919;19;20018;-58
2023/07/08 01:28:54;;;;;;;0.10;0.10;;;;;;;20.23;57.27;100034.28;7352517;19;20027;-58
2023/07/08 01:31:21;;;;;;;0.10;0.10;;;;;;;20.24;57.60;100031.50;7352802;19;20019;-58
2023/07/08 01:33:47;;;;;;;0.10;0.10;;;;;;;20.25;57.52;100033.19;7355605;19;20710;-58
2023/07/08 01:36:12;;;;;;;0.10;0.10;;;;;;;20.14;57.49;100009.28;7357604;19;20022;-58
2023/07/08 01:38:39;;;;;;;0.10;0.10;;;;;;;20.29;57.17;100018.75;7349976;19;20014;-58
2023/07/08 01:41:05;;;;;;;0.10;0.10;;;;;;;20.15;57.43;99995.06;7356550;19;20458;-58
2023/07/08 01:43:31;;;;;;;0.10;0.10;;;;;;;20.26;57.49;100013.66;7350652;19;20025;-58
2023/07/08 01:46:00;;;;;;;0.10;0.10;;;;;;;20.21;57.11;99997.25;7356076;19;20011;-58
2023/07/08 01:48:37;;;;;;;0.10;0.10;;;;;;;20.25;57.10;99989.94;7350365;19;20070;-58
2023/07/08 01:51:06;;;;;;;0.05;0.05;;;;;;;20.33;57.29;100008.78;7355201;19;20006;-58
2023/07/08 01:53:42;;;;;;;0.05;0.05;;;;;;;20.33;57.40;99988.41;7352243;19;20026;-58
2023/07/08 01:56:09;;;;;;;0.10;0.10;;;;;;;20.31;56.88;99998.25;7354116;19;20374;-58
2023/07/08 01:58:34;;;;;;;0.00;0.00;;;;;;;20.23;56.97;99992.72;7350738;19;20046;-58
2023/07/08 02:01:00;;;;;;;0.10;0.10;;;;;;;20.32;56.79;99999.94;7355137;19;20007;-59
2023/07/08 02:03:26;;;;;;;0.10;0.10;;;;;;;20.33;57.22;99993.72;7353227;19;20037;-59
2023/07/08 02:05:52;;;;;;;0.00;0.00;;;;;;;20.29;57.56;99992.25;7353318;19;20388;-58
2023/07/08 02:08:18;;;;;;;0.10;0.10;;;;;;;20.34;57.09;99987.44;7354005;19;20026;-58
2023/07/08 02:10:46;;;;;;;0.10;0.10;;;;;;;20.37;57.01;99981.88;7352666;19;20041;-59
2023/07/08 02:13:12;;;;;;;0.08;0.08;;;;;;;20.36;57.47;99974.91;7350127;19;20467;-58
2023/07/08 02:15:37;;;;;;;0.10;0.10;;;;;;;20.37;57.11;99968.63;7356240;19;20015;-59
2023/07/08 02:18:03;;;;;;;0.03;0.03;;;;;;;20.34;57.50;99962.72;7352072;19;20018;-58
2023/07/08 02:20:28;;;;;;;0.10;0.10;;;;;;;20.39;57.39;99964.06;7348345;19;20359;-58
2023/07/08 02:22:54;;;;;;;0.10;0.10;;;;;;;20.40;57.01;99963.09;7355670;19;20007;-59
2023/07/08 02:25:19;;;;;;;0.10;0.10;;;;;;;20.38;57.60;99943.00;7350507;19;21048;-59
2023/07/08 02:27:45;;;;;;;0.10;0.10;;;;;;;20.43;57.54;99948.78;7351999;19;20021;-59
2023/07/08 02:30:10;;;;;;;0.10;0.10;;;;;;;20.42;57.38;99947.91;7354037;19;20018;-58
2023/07/08 02:32:38;;;;;;;0.10;0.10;;;;;;;20.43;57.69;99952.28;7352785;19;20266;-59
2023/07/08 02:35:05;;;;;;;0.10;0.10;;;;;;;20.41;57.68;99945.38;7352889;19;20010;-58
2023/07/08 02:37:32;;;;;;;0.10;0.10;;;;;;;20.45;57.20;99944.19;7350415;19;20014;-58
2023/07/08 02:39:57;;;;;;;0.10;0.10;;;;;;;20.44;57.54;99950.47;7352659;19;20026;-58
2023/07/08 02:42:23;;;;;;;0.10;0.10;;;;;;;20.44;57.30;99943.34;7352532;19;20015;-58
2023/07/08 02:44:48;;;;;;;0.10;0.10;;;;;;;20.44;57.43;99948.66;7353099;19;20047;-58
2023/07/08 02:47:14;;;;;;;0.10;0.10;;;;;;;20.45;57.28;99939.75;7354640;19;20010;-58
2023/07/08 02:49:39;;;;;;;0.10;0.10;;;;;;;20.44;57.43;99943.34;7350238;19;20062;-58
2023/07/08 02:52:05;;;;;;;0.00;0.00;;;;;;;20.44;57.52;99932.75;7351837;19;20014;-59
2023/07/08 02:54:30;;;;;;;0.08;0.08;;;;;;;20.44;57.70;99924.78;7353221;19;20562;-59
2023/07/08 02:56:56;;;;;;;0.10;0.10;;;;;;;20.46;57.77;99930.84;7349699;19;20073;-59
2023/07/08 02:59:21;;;;;;;0.10;0.10;;;;;;;20.45;57.56;99923.81;7352907;19;20025;-59
2023/07/08 03:01:47;;;;;;;0.00;0.00;;;;;;;20.48;57.83;99922.78;7352449;19;20597;-58
2023/07/08 03:04:13;;;;;;;0.10;0.10;;;;;;;20.47;57.42;99918.44;7349474;19;20014;-58
2023/07/08 03:06:50;;;;;;;0.10;0.10;;;;;;;20.51;57.14;99930.50;7349155;19;20014;-58
2023/07/08 03:09:17;;;;;;;0.10;0.10;;;;;;;20.50;57.78;99941.22;7348607;19;20090;-59
2023/07/08 03:11:43;;;;;;;0.10;0.10;;;;;;;20.48;57.92;99901.56;7351237;19;20030;-58
2023/07/08 03:14:08;;;;;;;0.10;0.10;;;;;;;20.47;58.08;99907.81;7347997;19;20010;-58
2023/07/08 03:16:34;;;;;;;0.10;0.10;;;;;;;20.35;57.62;99888.38;7351720;19;20059;-59
2023/07/08 03:18:59;;;;;;;0.03;0.03;;;;;;;20.49;57.83;99892.66;7334962;19;20015;-59
2023/07/08 03:21:25;;;;;;;0.08;0.08;;;;;;;20.49;58.16;99891.81;7346237;19;20067;-58
2023/07/08 03:23:51;;;;;;;0.10;0.10;;;;;;;20.49;57.93;99891.81;7348185;19;20082;-58
2023/07/08 03:26:23;;;;;;;0.10;0.10;;;;;;;20.53;57.56;99882.63;7353428;19;20018;-59
2023/07/08 03:28:49;;;;;;;0.10;0.10;;;;;;;20.49;57.99;99882.03;7350639;19;20915;-58
2023/07/08 03:31:15;;;;;;;0.10;0.10;;;;;;;20.49;58.15;99875.91;7351911;19;20089;-59
2023/07/08 03:33:41;;;;;;;0.10;0.10;;;;;;;20.49;58.17;99881.19;7353192;19;20021;-58
2023/07/08 03:36:25;;;;;;;0.10;0.10;;;;;;;20.51;58.05;99885.41;7350149;19;20010;-59
2023/07/08 03:38:56;;;;;;;0.10;0.10;;;;;;;20.49;58.43;99881.19;7348302;19;20045;-58
2023/07/08 03:41:22;;;;;;;0.10;0.10;;;;;;;20.44;58.45;99874.41;7353582;19;20105;-58
2023/07/08 03:43:47;;;;;;;0.10;0.10;;;;;;;20.42;58.30;99876.31;7352775;19;20011;-59
2023/07/08 03:46:14;;;;;;;0.10;0.10;;;;;;;20.43;58.32;99891.28;7353469;19;20006;-59
2023/07/08 03:48:40;;;;;;;0.08;0.08;;;;;;;20.41;58.42;99882.59;7350696;19;20030;-58
2023/07/08 03:51:27;;;;;;;0.10;0.10;;;;;;;20.33;57.87;99861.13;7351821;19;20010;-58
2023/07/08 03:53:53;;;;;;;0.10;0.10;;;;;;;20.38;58.93;99896.09;7350251;19;20526;-59
2023/07/08 03:56:18;;;;;;;0.10;0.10;;;;;;;20.34;58.68;99888.50;7351301;19;20002;-58
2023/07/08 03:58:44;;;;;;;0.10;0.10;;;;;;;20.35;58.78;99891.00;7349653;19;20011;-59
2023/07/08 04:01:17;;;;;;;0.10;0.10;;;;;;;20.35;58.34;99900.78;7354556;19;20021;-58
2023/07/08 04:03:43;;;;;;;0.10;0.10;;;;;;;20.17;58.89;99882.66;7350474;19;20829;-58
2023/07/08 04:06:08;;;;;;;0.10;0.10;;;;;;;20.25;59.55;99889.19;7354354;19;20006;-59
2023/07/08 04:08:34;;;;;;;0.10;0.10;;;;;;;20.22;59.54;99890.25;7355441;19;20430;-59
2023/07/08 04:10:59;;;;;;;0.10;0.10;;;;;;;20.18;59.64;99879.06;7359055;19;20015;-59
2023/07/08 04:13:25;;;;;;;0.10;0.10;;;;;;;20.16;59.83;99888.06;7355185;19;20010;-59
2023/07/08 04:15:55;;;;;;;0.10;0.10;;;;;;;20.15;59.62;99883.72;7361992;19;20025;-58
2023/07/08 04:18:20;;;;;;;0.03;0.03;;;;;;;20.15;60.20;99910.25;7359311;19;20015;-58
2023/07/08 04:20:52;;;;;;;0.10;0.10;;;;;;;20.15;60.53;99907.59;7358434;19;20006;-59
2023/07/08 04:23:18;;;;;;;0.10;0.10;;;;;;;20.13;60.35;99893.63;7359330;19;20014;-58
2023/07/08 04:25:43;;;;;;;0.10;0.10;;;;;;;20.12;60.57;99890.13;7355948;19;20018;-59
2023/07/08 04:28:08;;;;;;;0.10;0.10;;;;;;;20.12;60.92;99878.66;7359343;19;20022;-58
2023/07/08 04:30:40;;;;;;;0.10;0.10;;;;;;;20.11;60.66;99880.47;7355199;19;20243;-58
2023/07/08 04:33:07;;;;;;;0.00;0.00;;;;;;;20.10;60.98;99859.38;7358734;19;20614;-59
2023/07/08 04:35:33;;;;;;;0.00;0.00;;;;;;;20.13;60.92;99875.91;7359051;19;20023;-58
2023/07/08 04:38:00;;;;;;;0.10;0.10;;;;;;;20.14;60.62;99874.94;7358117;19;20026;-59
2023/07/08 04:40:25;;;;;;;0.10;0.10;;;;;;;20.14;60.83;99887.34;7358607;19;22568;-59
2023/07/08 04:42:51;;;;;;;0.10;0.10;;;;;;;20.13;60.90;99869.75;7352183;19;20007;-59
2023/07/08 04:45:17;;;;;;;0.10;0.10;;;;;;;20.14;60.29;99866.13;7357759;19;20014;-58
2023/07/08 04:47:43;;;;;;;0.10;0.10;;;;;;;20.13;61.19;99885.66;7350907;19;20607;-58
2023/07/08 04:50:10;;;;;;;0.00;0.00;;;;;;;20.11;61.20;99885.75;7360462;19;20032;-58
2023/07/08 04:52:35;;;;;;;0.10;0.10;;;;;;;20.11;61.58;99871.66;7356151;19;20022;-59
2023/07/08 04:55:00;;;;;;;0.10;0.10;;;;;;;20.09;61.80;99863.84;7357707;19;20018;-58
2023/07/08 04:57:26;;;;;;;0.00;0.00;;;;;;;20.07;62.21;99867.53;7356820;19;20015;-59
2023/07/08 04:59:51;;;;;;;0.10;0.10;;;;;;;20.01;62.13;99854.75;7360739;19;20014;-58
2023/07/08 05:02:17;;;;;;;0.10;0.10;;;;;;;20.02;62.21;99865.28;7364511;19;20014;-58
2023/07/08 05:04:42;;;;;;;0.00;0.00;;;;;;;20.00;62.19;99856.56;7357720;19;20017;-59
2023/07/08 05:07:07;;;;;;;0.10;0.10;;;;;;;19.96;62.84;99853.28;7354861;19;20047;-59
2023/07/08 05:09:35;;;;;;;0.10;0.10;;;;;;;19.94;62.71;99859.69;7358259;19;20035;-58
2023/07/08 05:12:00;;;;;;;;;;;;;;;19.98;61.00;99884.16;7358095;19;20577;-59
2023/07/08 05:14:26;;;;;;;0.10;0.10;;;;;;;19.90;62.55;99874.97;7358037;19;19938;-58
2023/07/08 05:16:51;;;;;;;0.10;0.10;;;;;;;19.92;63.65;99867.75;7355099;19;20033;-58
2023/07/08 05:19:18;;;;;;;0.10;0.10;;;;;;;19.90;63.88;99874.97;7355474;19;20017;-58
2023/07/08 05:21:45;;;;;;;0.00;0.00;;;;;;;19.89;64.08;99878.56;7351246;19;20010;-58
2023/07/08 05:24:10;;;;;;;0.00;0.00;;;;;;;19.84;64.64;99843.63;7357471;19;20025;-58
2023/07/08 05:26:36;;;;;;;0.00;0.00;;;;;;;19.87;64.95;99837.25;7359136;19;20549;-59
2023/07/08 05:29:01;;;;;;;0.10;0.10;;;;;;;19.87;64.94;99848.72;7357588;19;20014;-58
2023/07/08 05:31:27;;;;;;;0.03;0.03;;;;;;;19.88;65.04;99861.00;7358175;19;20016;-58
2023/07/08 05:33:53;;;;;;;0.10;0.10;;;;;;;19.88;65.60;99858.34;7356100;19;20098;-59
2023/07/08 05:36:19;;;;;;;0.10;0.10;;;;;;;19.92;64.26;99901.34;7359127;19;20078;-59
2023/07/08 05:38:44;;;;;;;0.10;0.10;;;;;;;19.92;65.56;99899.56;7351623;19;20018;-59
2023/07/08 05:41:09;;;;;;;0.10;0.10;;;;;;;19.83;65.28;99868.44;7358704;19;20014;-59
2023/07/08 05:43:35;;;;;;;0.10;0.10;;;;;;;19.98;65.22;99886.81;7355689;19;20021;-60
2023/07/08 05:46:02;;;;;;;0.10;0.10;;;;;;;20.00;64.91;99898.13;7355192;19;20446;-59
2023/07/08 05:48:27;;;;;;;0.07;0.07;;;;;;;20.00;65.01;99880.41;7355292;19;20663;-59
2023/07/08 05:50:53;;;;;;;0.10;0.10;;;;;;;20.02;65.33;99893.56;7359842;19;20006;-58
2023/07/08 05:53:22;;;;;;;0.10;0.10;;;;;;;20.02;65.45;99893.56;7352770;19;20553;-59
2023/07/08 05:55:49;;;;;;;0.10;0.10;;;;;;;20.02;65.06;99891.78;7353531;19;20014;-59
2023/07/08 05:58:15;;;;;;;0.10;0.10;;;;;;;20.01;65.26;99892.72;7353490;19;20836;-58
2023/07/08 06:00:42;;;;;;;0.10;0.10;;;;;;;20.03;65.04;99900.56;7356461;19;20834;-59
2023/07/08 06:03:08;;;;;;;0.10;0.10;;;;;;;20.04;64.85;99904.91;7356099;19;20059;-59
2023/07/08 06:05:33;;;;;;;0.10;0.10;;;;;;;20.05;64.98;99898.63;7354619;19;20011;-59
2023/07/08 06:07:59;;;;;;;0.10;0.10;;;;;;;20.03;64.98;99890.81;7354421;19;20021;-59
2023/07/08 06:10:24;;;;;;;0.10;0.10;;;;;;;20.02;65.54;99893.56;7354118;19;20095;-58
2023/07/08 06:12:50;;;;;;;0.10;0.10;;;;;;;19.92;65.34;99899.56;7352592;19;20454;-59
2023/07/08 06:15:16;;;;;;;0.10;0.10;;;;;;;20.01;65.39;99919.22;7353032;19;20085;-59
2023/07/08 06:17:41;;;;;;;0.10;0.10;;;;;;;19.96;65.37;99901.00;7355902;19;20029;-59
2023/07/08 06:20:07;;;;;;;0.10;0.10;;;;;;;19.96;65.82;99916.06;7345722;19;20026;-59
2023/07/08 06:22:32;;;;;;;0.10;0.10;;;;;;;19.92;65.40;99912.81;7353678;19;20776;-59
2023/07/08 06:24:58;;;;;;;0.10;0.10;;;;;;;19.90;66.29;99921.81;7354171;19;20013;-58
2023/07/08 06:27:24;;;;;;;0.10;0.10;;;;;;;19.90;65.95;99927.13;7351960;19;20010;-59
2023/07/08 06:29:50;;;;;;;0.10;0.10;;;;;;;19.88;65.79;99929.88;7354428;19;20372;-58
2023/07/08 06:32:16;;;;;;;0.10;0.10;;;;;;;19.87;66.38;99936.16;7352281;19;20006;-59
2023/07/08 06:34:41;;;;;;;0.00;0.00;;;;;;;19.87;66.55;99944.09;7352630;19;20006;-59
2023/07/08 06:37:07;;;;;;;0.10;0.10;;;;;;;19.88;67.27;99955.53;7351839;19;20020;-59
2023/07/08 06:39:32;;;;;;;0.10;0.10;;;;;;;19.88;67.27;99969.63;7348092;19;20513;-58
2023/07/08 06:41:57;;;;;;;0.10;0.10;;;;;;;19.88;67.42;99972.28;7353493;19;20372;-59
2023/07/08 06:44:24;;;;;;;0.10;0.10;;;;;;;19.81;67.26;99960.41;7354126;19;20674;-59
2023/07/08 06:46:49;;;;;;;0.10;0.10;;;;;;;19.93;67.18;99990.50;7354371;19;20010;-59
2023/07/08 06:49:15;;;;;;;0.10;0.10;;;;;;;19.96;67.23;99990.25;7352545;19;20100;-59
2023/07/08 06:51:40;;;;;;;0.10;0.10;;;;;;;20.01;66.97;99997.88;7352622;19;20010;-59
2023/07/08 06:54:11;;;;;;;0.10;0.10;;;;;;;20.02;66.82;99988.97;7352364;19;20022;-58
2023/07/08 06:56:40;;;;;;;0.00;0.00;;;;;;;20.02;65.82;99983.66;7351364;19;20018;-59
2023/07/08 06:59:09;;;;;;;0.10;0.10;;;;;;;20.14;65.71;100007.47;7350800;19;20031;-59
2023/07/08 07:01:36;;;;;;;0.10;0.10;;;;;;;20.19;65.42;100007.13;7353714;19;20508;-60
2023/07/08 07:04:01;;;;;;;;;;;;;;;20.31;64.57;100019.47;7354787;19;20015;-60
2023/07/08 07:06:27;;;;;;;0.10;0.10;;;;;;;20.32;64.08;100021.16;7354237;19;19953;-59
2023/07/08 07:08:52;;;;;;;0.10;0.10;;;;;;;20.39;63.32;100025.06;7353733;19;20019;-58
2023/07/08 07:11:19;;;;;;;0.10;0.10;;;;;;;20.44;63.00;100028.22;7349011;19;20033;-59
2023/07/08 07:13:45;;;;;;;0.10;0.10;;;;;;;20.42;62.22;100014.22;7351479;19;20006;-59
2023/07/08 07:16:10;;;;;;;0.05;0.05;;;;;;;20.50;62.48;100023.47;7352276;19;20034;-58
2023/07/08 07:18:36;;;;;;;0.10;0.10;;;;;;;20.59;62.02;100044.00;7349805;19;20006;-59
2023/07/08 07:21:01;;;;;;;0.10;0.10;;;;;;;20.66;61.63;100058.47;7348556;19;20682;-59
2023/07/08 07:23:27;;;;;;;0.10;0.10;;;;;;;20.69;61.33;100031.72;7350583;19;20035;-58
2023/07/08 07:25:52;;;;;;;0.10;0.10;;;;;;;20.79;60.95;100053.97;7353090;19;20011;-59
2023/07/08 07:28:18;;;;;;;0.10;0.10;;;;;;;20.90;60.47;100066.41;7353378;19;20014;-59
2023/07/08 07:30:44;;;;;;;0.10;0.10;;;;;;;20.99;60.13;100071.88;7351354;19;20010;-59
2023/07/08 07:33:10;;;;;;;0.10;0.10;;;;;;;21.09;60.21;100066.72;7352913;19;20014;-59
2023/07/08 07:35:35;;;;;;;0.10;0.10;;;;;;;21.06;58.60;100055.47;7348894;19;20027;-59
2023/07/08 07:38:01;;;;;;;0.10;0.10;;;;;;;21.27;58.55;100080.38;7351777;19;20034;-58
2023/07/08 07:40:26;;;;;;;0.10;0.10;;;;;;;21.34;57.97;100078.09;7350609;19;20007;-59
2023/07/08 07:42:52;;;;;;;0.10;0.10;;;;;;;21.02;56.36;100033.59;7350347;19;20002;-60
2023/07/08 07:45:17;;;;;;;0.10;0.10;;;;;;;21.34;57.00;100097.56;7352852;19;20011;-59
2023/07/08 07:47:43;;;;;;;0.10;0.10;;;;;;;21.35;55.85;100101.91;7354797;19;20024;-60
2023/07/08 07:50:09;;;;;;;0.10;0.10;;;;;;;21.42;54.76;100110.25;7357740;19;20011;-58
2023/07/08 07:52:35;;;;;;;0.10;0.10;;;;;;;21.42;55.30;100110.25;7350301;19;20101;-58
2023/07/08 07:55:02;;;;;;;0.10;0.10;;;;;;;21.45;55.00;100120.63;7359083;19;20093;-59
2023/07/08 07:57:27;;;;;;;0.10;0.10;;;;;;;21.48;55.35;100137.16;7356860;19;20010;-59
2023/07/08 07:59:53;;;;;;;0.10;0.10;;;;;;;21.50;54.90;100124.63;7358162;19;20014;-59
2023/07/08 08:02:19;;;;;;;0.10;0.10;;;;;;;21.56;54.30;100138.41;7355464;19;20082;-58
2023/07/08 08:04:44;;;;;;;0.10;0.10;;;;;;;21.65;54.73;100148.31;7357303;19;20375;-59
2023/07/08 08:07:10;;;;;;;0.10;0.10;;;;;;;21.64;53.89;100157.25;7356051;19;20037;-59
2023/07/08 08:09:36;;;;;;;0.10;0.10;;;;;;;21.75;52.48;100149.31;7358704;19;20015;-59
2023/07/08 08:12:03;;;;;;;0.10;0.10;;;;;;;21.84;52.43;100169.81;7352914;19;20013;-59
2023/07/08 08:14:29;;;;;;;0.10;0.10;;;;;;;21.88;52.26;100171.28;7356870;19;20010;-59
2023/07/08 08:16:54;;;;;;;0.10;0.10;;;;;;;21.92;52.97;100193.16;7358231;19;20102;-59
2023/07/08 08:19:20;;;;;;;0.10;0.10;;;;;;;21.94;51.38;100172.59;7360426;19;20592;-59
2023/07/08 08:21:45;;;;;;;0.10;0.10;;;;;;;21.74;50.57;100168.84;7354038;19;20025;-59
2023/07/08 08:24:11;;;;;;;0.03;0.03;;;;;;;21.64;50.56;100157.25;7358510;19;20109;-59
2023/07/08 08:26:36;;;;;;;0.10;0.10;;;;;;;21.88;50.75;100200.53;7356939;19;20026;-59
2023/07/08 08:29:02;;;;;;;0.03;0.03;;;;;;;22.01;51.70;100227.00;7354818;19;20041;-59
2023/07/08 08:31:27;;;;;;;0.10;0.10;;;;;;;22.06;51.24;100226.66;7356588;19;20625;-59
2023/07/08 08:33:53;;;;;;;0.10;0.10;;;;;;;22.11;51.83;100229.84;7356806;19;20018;-59
2023/07/08 08:36:20;;;;;;;0.10;0.10;;;;;;;21.89;50.62;100196.03;7355273;19;20481;-59
2023/07/08 08:38:46;;;;;;;0.10;0.10;;;;;;;22.28;50.15;100242.63;7358553;19;20014;-59
2023/07/08 08:41:18;;;;;;;0.10;0.10;;;;;;;22.32;51.12;100238.78;7355231;19;20019;-59
2023/07/08 08:43:46;;;;;;;0.10;0.10;;;;;;;22.40;49.85;100262.94;7357232;19;20538;-58
2023/07/08 08:46:34;;;;;;;0.10;0.10;;;;;;;22.49;50.54;100272.88;7357228;19;20021;-59
2023/07/08 08:49:13;;;;;;;0.10;0.10;;;;;;;22.50;49.16;100263.91;7356647;19;20452;-59
2023/07/08 08:51:40;;;;;;;0.10;0.10;;;;;;;22.46;49.84;100278.44;7353053;19;20044;-59
2023/07/08 08:54:07;;;;;;;0.00;0.00;;;;;;;22.50;50.08;100301.16;7354513;19;20133;-59
2023/07/08 08:57:02;;;;;;;0.10;0.10;;;;;;;22.62;51.08;100285.22;7350798;19;20425;-59
2023/07/08 08:59:43;;;;;;;0.10;0.10;;;;;;;22.51;50.47;100270.09;7255277;19;2004409;-59
2023/07/08 09:02:41;;;;;;;0.10;0.10;;;;;;;22.70;50.94;100306.72;7356129;19;20034;-59
2023/07/08 09:05:10;;;;;;;0.10;0.10;;;;;;;22.72;49.56;100307.47;7251464;19;2004382;-59
2023/07/08 09:07:54;;;;;;;0.10;0.10;;;;;;;22.75;49.71;100313.38;7355589;19;20017;-59
2023/07/08 09:10:41;;;;;;;0.10;0.10;;;;;;;22.73;49.83;100325.13;7352810;19;20488;-59
2023/07/08 09:13:16;;;;;;;0.10;0.10;;;;;;;22.69;48.79;100336.97;7353486;19;20007;-59
2023/07/08 09:15:42;;;;;;;0.08;0.08;;;;;;;22.63;48.98;100345.44;7357197;19;20041;-59
2023/07/08 09:18:31;;;;;;;0.10;0.10;;;;;;;22.69;50.20;100342.31;7349142;19;19998;-59
2023/07/08 09:21:01;;;;;;;0.10;0.10;;;;;;;22.66;49.29;100359.38;7256785;19;2006274;-59
2023/07/08 09:23:32;;;;;;;0.10;0.10;;;;;;;22.70;49.69;100355.47;7356446;19;20036;-59
2023/07/08 09:26:11;;;;;;;0.10;0.10;;;;;;;22.58;48.89;100340.50;7356435;19;20007;-59
2023/07/08 09:28:42;;;;;;;0.10;0.10;;;;;;;22.62;49.29;100341.09;7354824;19;20006;-66
2023/07/08 09:31:25;;;;;;;0.10;0.10;;;;;;;22.78;49.50;100354.88;7354296;19;20365;-66
2023/07/08 09:33:52;;;;;;;0.10;0.10;;;;;;;22.84;48.31;100351.72;7357692;19;20009;-66
2023/07/08 09:36:19;;;;;;;;;;;;;;;23.05;49.91;100376.69;7358216;19;20022;-66
2023/07/08 09:38:47;;;;;;;0.10;0.10;;;;;;;23.12;46.21;100390.38;7356092;19;20411;-66
2023/07/08 09:41:13;;;;;;;0.10;0.10;;;;;;;22.62;44.94;100282.56;7355464;19;20010;-66
2023/07/08 09:43:38;;;;;;;0.05;0.05;;;;;;;23.22;44.91;100366.50;7355914;19;20498;-66
2023/07/08 09:46:04;;;;;;;0.10;0.10;;;;;;;23.26;44.24;100343.94;7357608;19;20015;-67
2023/07/08 09:48:35;;;;;;;0.10;0.10;;;;;;;23.36;44.42;100352.88;7333760;19;20017;-66
2023/07/08 09:51:01;;;;;;;0.10;0.10;;;;;;;23.32;43.61;100364.78;7345063;19;20014;-66
2023/07/08 09:53:27;;;;;;;0.10;0.10;;;;;;;23.38;43.05;100380.28;7346025;19;20017;-66
2023/07/08 09:55:56;;;;;;;0.10;0.10;;;;;;;23.46;43.75;100391.13;7352026;19;20029;-66
2023/07/08 09:58:30;;;;;;;0.10;0.10;;;;;;;23.55;44.40;100385.06;7355172;19;20106;-66
2023/07/08 10:00:59;;;;;;;0.10;0.10;;;;;;;23.76;44.08;100411.78;7352265;19;20735;-66
2023/07/08 10:03:28;;;;;;;0.10;0.10;;;;;;;23.95;44.43;100413.78;7349437;19;20095;-67
2023/07/08 10:06:00;;;;;;;0.10;0.10;;;;;;;24.04;43.23;100413.03;7350759;19;20027;-66
2023/07/08 10:08:37;;;;;;;0.10;0.10;;;;;;;24.24;44.11;100418.53;7355578;19;20014;-66
2023/07/08 10:11:22;;;;;;;;;;;;;;;24.49;46.02;100439.53;7356092;19;20612;-66
2023/07/08 10:13:54;;;;;;;0.10;0.10;;;;;;;24.70;43.12;100431.50;7355706;19;19914;-67
2023/07/08 10:16:28;;;;;;;0.10;0.10;;;;;;;24.96;42.70;100439.06;7354397;19;20010;-66
2023/07/08 10:18:54;;;;;;;0.08;0.08;;;;;;;25.12;41.49;100435.94;7359329;19;20082;-66
2023/07/08 10:21:44;;;;;;;0.00;0.00;;;;;;;25.42;42.91;100443.91;7353857;19;20017;-67
2023/07/08 10:24:34;;;;;;;0.10;0.10;;;;;;;25.78;43.26;100449.63;7252494;19;2004574;-67
2023/07/08 10:27:16;;;;;;;0.10;0.10;;;;;;;26.05;41.23;100439.06;7251556;19;2004357;-67
2023/07/08 10:30:05;;;;;;;0.00;0.00;;;;;;;26.42;38.79;100448.25;7352855;19;20029;-67
2023/07/08 10:32:54;;;;;;;0.00;0.00;;;;;;;26.76;39.85;100445.91;7353168;19;20014;-67
2023/07/08 10:35:35;;;;;;;0.00;0.00;;;;;;;26.96;39.48;100452.91;7349803;19;20114;-67
2023/07/08 10:38:25;;;;;;;0.00;0.00;;;;;;;27.21;39.47;100462.16;7349245;19;20642;-67
2023/07/08 10:40:59;;;;;;;0.10;0.10;;;;;;;27.39;36.96;100454.16;7355245;19;20014;-67
2023/07/08 10:44:06;;;;;;;0.00;0.00;;;;;;;27.66;38.84;100464.88;7351136;19;20010;-66
2023/07/08 10:46:50;;;;;;;0.10;0.10;;;;;;;27.98;37.95;100485.03;7250259;19;2004548;-67
2023/07/08 10:49:34;;;;;;;0.10;0.10;;;;;;;28.26;37.75;100463.47;7353157;19;20015;-66
2023/07/08 10:52:24;;;;;;;0.10;0.10;;;;;;;28.45;36.78;100463.31;7348845;19;20043;-66
2023/07/08 10:54:55;;;;;;;0.10;0.10;;;;;;;28.70;36.01;100456.28;7350162;19;20014;-67
2023/07/08 10:57:51;;;;;;;0.10;0.10;;;;;;;28.98;34.97;100453.44;7352014;19;20026;-67
2023/07/08 11:00:38;;;;;;;0.00;0.00;;;;;;;29.30;35.59;100459.00;7249234;19;2004519;-62
2023/07/08 11:03:15;;;;;;;0.10;0.10;;;;;;;29.49;33.45;100455.16;7354080;19;20010;-67
2023/07/08 11:05:46;;;;;;;0.00;0.00;;;;;;;29.59;32.40;100463.97;7353024;19;20006;-67
2023/07/08 11:08:21;;;;;;;0.10;0.10;;;;;;;29.78;32.50;100467.41;7351637;19;20019;-67
2023/07/08 11:10:56;;;;;;;0.10;0.10;;;;;;;29.94;31.63;100479.03;7351962;19;20010;-67
2023/07/08 11:13:25;;;;;;;0.00;0.00;;;;;;;30.05;30.53;100485.94;7353258;19;20018;-67
2023/07/08 11:16:07;;;;;;;0.10;0.10;;;;;;;30.17;32.08;100481.97;7352619;19;20745;-66
2023/07/08 11:18:54;;;;;;;0.00;0.00;;;;;;;30.32;32.61;100482.16;7349982;19;20781;-66
2023/07/08 11:21:35;;;;;;;0.10;0.10;;;;;;;30.42;31.37;100477.44;7360950;19;20015;-66
2023/07/08 11:24:21;;;;;;;0.10;0.10;;;;;;;30.69;33.03;100467.28;7358362;19;20014;-66
2023/07/08 11:26:53;;;;;;;0.00;0.00;;;;;;;31.03;31.51;100490.53;7357157;19;20014;-66
2023/07/08 11:29:35;;;;;;;0.10;0.10;;;;;;;31.33;30.84;100491.63;7359669;19;21053;-66
2023/07/08 11:32:03;;;;;;;0.08;0.08;;;;;;;31.58;28.60;100501.31;7356328;19;20057;-66
2023/07/08 11:34:29;;;;;;;0.00;0.00;;;;;;;31.83;27.97;100493.06;7358876;19;20020;-66
2023/07/08 11:36:57;;;;;;;0.00;0.00;;;;;;;32.00;26.78;100491.97;7356629;19;20014;-67
2023/07/08 11:39:34;;;;;;;0.10;0.10;;;;;;;32.09;29.61;100488.19;7358573;19;20426;-66